CheckWX is a tool to help pilots better visualize weather data.  It is not intended as a substitute for an official pre-flight weather briefing.

03:13:38 UTC

DRRM METAR
Maradi Airport
Maradi, Niger
Current

9 hours ago

DRRM 251800Z 22008KT CAVOK 33/21 Q1008
Observed
May-25 @ 18:00 UTC
Wind
  • 220° at 8 KTS
Visibility
10,000+ meters
Flight Rules
VFR
Cloud Levels
  • Clear skies
Temperature
33°C / 91°F
Dewpoint
21°C / 70°F
Heat Index
36°C / 96°F
Humidity
49%
Altimeter
29.76" Hg
Pressure
1007.92 hPa
Previous

10 hours ago

DRRM 251700Z 22012KT CAVOK 34/20 Q1008
Observed
May-25 @ 17:00 UTC
Wind
  • 220° at 12 KTS
Visibility
10,000+ meters
Flight Rules
VFR
Cloud Levels
  • Clear skies
Temperature
34°C / 93°F
Dewpoint
20°C / 68°F
Heat Index
36°C / 97°F
Humidity
44%
Altimeter
29.76" Hg
Pressure
1007.92 hPa
Previous

11 hours ago

DRRM 251600Z 24008KT CAVOK 35/21 Q1009
Observed
May-25 @ 16:00 UTC
Wind
  • 240° at 8 KTS
Visibility
10,000+ meters
Flight Rules
VFR
Cloud Levels
  • Clear skies
Temperature
35°C / 95°F
Dewpoint
21°C / 70°F
Heat Index
38°C / 101°F
Humidity
44%
Altimeter
29.79" Hg
Pressure
1008.92 hPa